Country
Station

 

Weather  for  Kristianstad/Everod  -  Sweden    Sweden

  
13 °C (55 °F)
    
 
 

Current METAR for Kristianstad/Everod is :

ESMK 180950Z 33012KT 290V350 9999 FEW040 13/05 Q1015

 

This is a report for Kristianstad/Everod - Sweden.
 
The report was made 26 minutes ago, at 09:50 UTC .
The wind was blowing at a speed of 6.2 meters per second (13.8 miles per hour) from north/northwest (330°), varying between west/northwest (290°) and north (350°).
 
The temperature was 13 °C (55 °F), with a dew-point at 5 °C (41 °F).
The atmospheric pressure was 1015 hPa (29.97 inHg).
The relative humidity was 58.2%.
 
There were a few clouds at a height of 1219 meters (4000 feet).
 
The overall visibility was greater than 10 kilometers (6.2 miles).
 

 
 
 
 

Country :   A   B   C   D   E   F   G   H   I   J   K   L   M   N   O   P   Q   R   S   T   U   V   W   Y   Z

 

Site Info  |  Disclaimer  |  Credits  |  Privacy
Contact us  |  Add to favorites
© 2013-2019 METARs - All rights reserved